sensor_id;sensor_type;location;lat;lon;timestamp;temperature;humidity
70475;DHT22;57944;48.722;9.316;2022-12-24T00:00:47;9.00;99.90
70475;DHT22;57944;48.722;9.316;2022-12-24T00:03:18;9.00;99.90
70475;DHT22;57944;48.722;9.316;2022-12-24T00:05:48;8.90;99.90
70475;DHT22;57944;48.722;9.316;2022-12-24T00:08:18;8.90;99.90
70475;DHT22;57944;48.722;9.316;2022-12-24T00:10:49;9.00;99.90
70475;DHT22;57944;48.722;9.316;2022-12-24T00:13:20;9.10;99.90
70475;DHT22;57944;48.722;9.316;2022-12-24T00:15:53;9.30;99.90
70475;DHT22;57944;48.722;9.316;2022-12-24T00:18:23;9.30;99.90
70475;DHT22;57944;48.722;9.316;2022-12-24T00:20:53;9.30;99.90
70475;DHT22;57944;48.722;9.316;2022-12-24T00:23:24;9.30;99.90
70475;DHT22;57944;48.722;9.316;2022-12-24T00:25:54;9.30;99.90
70475;DHT22;57944;48.722;9.316;2022-12-24T00:28:24;9.30;99.90
70475;DHT22;57944;48.722;9.316;2022-12-24T00:30:56;9.20;99.90
70475;DHT22;57944;48.722;9.316;2022-12-24T00:33:26;9.20;99.90
70475;DHT22;57944;48.722;9.316;2022-12-24T00:35:56;9.20;99.90
70475;DHT22;57944;48.722;9.316;2022-12-24T00:38:26;9.20;99.90
70475;DHT22;57944;48.722;9.316;2022-12-24T00:40:58;9.20;99.90
70475;DHT22;57944;48.722;9.316;2022-12-24T00:43:30;9.30;99.90
70475;DHT22;57944;48.722;9.316;2022-12-24T00:46:03;9.20;99.90
70475;DHT22;57944;48.722;9.316;2022-12-24T00:48:33;9.10;99.90
70475;DHT22;57944;48.722;9.316;2022-12-24T00:51:04;9.10;99.90
70475;DHT22;57944;48.722;9.316;2022-12-24T00:53:34;9.20;99.90
70475;DHT22;57944;48.722;9.316;2022-12-24T00:56:05;9.20;99.90
70475;DHT22;57944;48.722;9.316;2022-12-24T00:58:36;9.30;99.90
70475;DHT22;57944;48.722;9.316;2022-12-24T01:01:09;9.30;99.90
70475;DHT22;57944;48.722;9.316;2022-12-24T01:03:39;9.30;99.90
70475;DHT22;57944;48.722;9.316;2022-12-24T01:06:12;9.20;99.90
70475;DHT22;57944;48.722;9.316;2022-12-24T01:08:41;9.20;99.90
70475;DHT22;57944;48.722;9.316;2022-12-24T01:11:12;9.20;99.90
70475;DHT22;57944;48.722;9.316;2022-12-24T01:13:42;9.30;99.90
70475;DHT22;57944;48.722;9.316;2022-12-24T01:16:18;9.30;99.90
70475;DHT22;57944;48.722;9.316;2022-12-24T01:18:49;9.40;99.90
70475;DHT22;57944;48.722;9.316;2022-12-24T01:21:19;9.40;99.90
70475;DHT22;57944;48.722;9.316;2022-12-24T01:23:49;9.50;99.90
70475;DHT22;57944;48.722;9.316;2022-12-24T01:26:19;9.60;99.90
70475;DHT22;57944;48.722;9.316;2022-12-24T01:28:49;9.60;99.90
70475;DHT22;57944;48.722;9.316;2022-12-24T01:31:22;9.70;99.90
70475;DHT22;57944;48.722;9.316;2022-12-24T01:33:52;9.80;99.90
70475;DHT22;57944;48.722;9.316;2022-12-24T01:36:22;9.80;99.90
70475;DHT22;57944;48.722;9.316;2022-12-24T01:38:52;9.90;99.90
70475;DHT22;57944;48.722;9.316;2022-12-24T01:41:22;9.90;99.90
70475;DHT22;57944;48.722;9.316;2022-12-24T01:44:22;9.90;99.90
70475;DHT22;57944;48.722;9.316;2022-12-24T01:47:07;9.90;99.90
70475;DHT22;57944;48.722;9.316;2022-12-24T01:49:43;9.90;99.90
70475;DHT22;57944;48.722;9.316;2022-12-24T01:52:19;9.90;99.90
70475;DHT22;57944;48.722;9.316;2022-12-24T01:54:53;9.80;99.90
70475;DHT22;57944;48.722;9.316;2022-12-24T01:57:30;9.50;99.90
70475;DHT22;57944;48.722;9.316;2022-12-24T02:00:06;9.60;99.90
70475;DHT22;57944;48.722;9.316;2022-12-24T02:02:44;9.60;99.90
70475;DHT22;57944;48.722;9.316;2022-12-24T02:05:23;9.50;99.90
70475;DHT22;57944;48.722;9.316;2022-12-24T02:07:58;9.30;99.90
70475;DHT22;57944;48.722;9.316;2022-12-24T02:10:31;9.20;99.90
70475;DHT22;57944;48.722;9.316;2022-12-24T02:13:02;9.10;99.90
70475;DHT22;57944;48.722;9.316;2022-12-24T02:15:38;9.10;99.90
70475;DHT22;57944;48.722;9.316;2022-12-24T02:18:27;9.00;99.90
70475;DHT22;57944;48.722;9.316;2022-12-24T02:21:22;8.90;99.90
70475;DHT22;57944;48.722;9.316;2022-12-24T02:24:37;8.80;99.90
70475;DHT22;57944;48.722;9.316;2022-12-24T02:27:41;8.80;99.90
70475;DHT22;57944;48.722;9.316;2022-12-24T02:30:30;8.80;99.90
70475;DHT22;57944;48.722;9.316;2022-12-24T02:33:19;8.90;99.90
70475;DHT22;57944;48.722;9.316;2022-12-24T02:36:00;8.60;99.90
70475;DHT22;57944;48.722;9.316;2022-12-24T02:38:38;8.50;99.90
70475;DHT22;57944;48.722;9.316;2022-12-24T02:41:16;8.60;99.90
70475;DHT22;57944;48.722;9.316;2022-12-24T02:43:52;8.70;99.90
70475;DHT22;57944;48.722;9.316;2022-12-24T02:46:30;8.90;99.90
70475;DHT22;57944;48.722;9.316;2022-12-24T02:49:01;9.20;99.90
70475;DHT22;57944;48.722;9.316;2022-12-24T02:51:32;9.30;99.90
70475;DHT22;57944;48.722;9.316;2022-12-24T02:54:02;9.40;99.90
70475;DHT22;57944;48.722;9.316;2022-12-24T02:56:44;9.30;99.90
70475;DHT22;57944;48.722;9.316;2022-12-24T02:59:43;9.30;99.90
70475;DHT22;57944;48.722;9.316;2022-12-24T03:02:39;9.30;99.90
70475;DHT22;57944;48.722;9.316;2022-12-24T03:05:28;9.30;99.90
70475;DHT22;57944;48.722;9.316;2022-12-24T03:08:12;9.10;99.90
70475;DHT22;57944;48.722;9.316;2022-12-24T03:10:53;9.10;99.90
70475;DHT22;57944;48.722;9.316;2022-12-24T03:13:27;9.10;99.90
70475;DHT22;57944;48.722;9.316;2022-12-24T03:15:58;9.10;99.90
70475;DHT22;57944;48.722;9.316;2022-12-24T03:18:32;9.10;99.90
70475;DHT22;57944;48.722;9.316;2022-12-24T03:21:06;9.20;99.90
70475;DHT22;57944;48.722;9.316;2022-12-24T03:23:40;9.20;99.90
70475;DHT22;57944;48.722;9.316;2022-12-24T03:26:12;9.20;99.90
70475;DHT22;57944;48.722;9.316;2022-12-24T03:28:46;9.20;99.90
70475;DHT22;57944;48.722;9.316;2022-12-24T03:31:17;9.20;99.90
70475;DHT22;57944;48.722;9.316;2022-12-24T03:33:50;9.20;99.90
70475;DHT22;57944;48.722;9.316;2022-12-24T03:36:20;9.20;99.90
70475;DHT22;57944;48.722;9.316;2022-12-24T03:38:51;9.20;99.90
70475;DHT22;57944;48.722;9.316;2022-12-24T03:41:21;9.20;99.90
70475;DHT22;57944;48.722;9.316;2022-12-24T03:43:51;9.20;99.90
70475;DHT22;57944;48.722;9.316;2022-12-24T03:46:21;9.20;99.90
70475;DHT22;57944;48.722;9.316;2022-12-24T03:48:54;9.20;99.90
70475;DHT22;57944;48.722;9.316;2022-12-24T03:51:24;9.10;99.90
70475;DHT22;57944;48.722;9.316;2022-12-24T03:53:56;9.20;99.90
70475;DHT22;57944;48.722;9.316;2022-12-24T03:56:26;9.10;99.90
70475;DHT22;57944;48.722;9.316;2022-12-24T03:58:56;9.10;99.90
70475;DHT22;57944;48.722;9.316;2022-12-24T04:01:27;9.20;99.90
70475;DHT22;57944;48.722;9.316;2022-12-24T04:03:59;9.20;99.90
70475;DHT22;57944;48.722;9.316;2022-12-24T04:06:30;9.30;99.90
70475;DHT22;57944;48.722;9.316;2022-12-24T04:09:00;9.40;99.90
70475;DHT22;57944;48.722;9.316;2022-12-24T04:11:31;9.40;99.90
70475;DHT22;57944;48.722;9.316;2022-12-24T04:14:01;9.40;99.90
70475;DHT22;57944;48.722;9.316;2022-12-24T04:16:32;9.50;99.90
70475;DHT22;57944;48.722;9.316;2022-12-24T04:19:04;9.50;99.90
70475;DHT22;57944;48.722;9.316;2022-12-24T04:21:35;9.50;99.90
70475;DHT22;57944;48.722;9.316;2022-12-24T04:24:05;9.40;99.90
70475;DHT22;57944;48.722;9.316;2022-12-24T04:26:35;9.50;99.90
70475;DHT22;57944;48.722;9.316;2022-12-24T04:29:05;9.50;99.90
70475;DHT22;57944;48.722;9.316;2022-12-24T04:31:36;9.50;99.90
70475;DHT22;57944;48.722;9.316;2022-12-24T04:34:09;9.60;99.90
70475;DHT22;57944;48.722;9.316;2022-12-24T04:36:39;9.70;99.90
70475;DHT22;57944;48.722;9.316;2022-12-24T04:39:09;9.60;99.90
70475;DHT22;57944;48.722;9.316;2022-12-24T04:41:39;9.60;99.90
70475;DHT22;57944;48.722;9.316;2022-12-24T04:44:10;9.50;99.90
70475;DHT22;57944;48.722;9.316;2022-12-24T04:46:40;9.50;99.90
70475;DHT22;57944;48.722;9.316;2022-12-24T04:49:12;9.50;99.90
70475;DHT22;57944;48.722;9.316;2022-12-24T04:51:42;9.50;99.90
70475;DHT22;57944;48.722;9.316;2022-12-24T04:54:13;9.40;99.90
70475;DHT22;57944;48.722;9.316;2022-12-24T04:56:43;9.40;99.90
70475;DHT22;57944;48.722;9.316;2022-12-24T04:59:13;9.40;99.90
70475;DHT22;57944;48.722;9.316;2022-12-24T05:01:43;9.30;99.90
70475;DHT22;57944;48.722;9.316;2022-12-24T05:04:15;9.20;99.90
70475;DHT22;57944;48.722;9.316;2022-12-24T05:06:45;9.30;99.90
70475;DHT22;57944;48.722;9.316;2022-12-24T05:09:15;9.30;99.90
70475;DHT22;57944;48.722;9.316;2022-12-24T05:11:46;9.40;99.90
70475;DHT22;57944;48.722;9.316;2022-12-24T05:14:16;9.40;99.90
70475;DHT22;57944;48.722;9.316;2022-12-24T05:16:46;9.40;99.90
70475;DHT22;57944;48.722;9.316;2022-12-24T05:19:18;9.40;99.90
70475;DHT22;57944;48.722;9.316;2022-12-24T05:21:49;9.30;99.90
70475;DHT22;57944;48.722;9.316;2022-12-24T05:24:39;9.20;99.90
70475;DHT22;57944;48.722;9.316;2022-12-24T05:27:21;9.20;99.90
70475;DHT22;57944;48.722;9.316;2022-12-24T05:29:51;9.20;99.90
70475;DHT22;57944;48.722;9.316;2022-12-24T05:32:21;9.20;99.90
70475;DHT22;57944;48.722;9.316;2022-12-24T05:34:54;9.10;99.90
70475;DHT22;57944;48.722;9.316;2022-12-24T05:37:24;9.10;99.90
70475;DHT22;57944;48.722;9.316;2022-12-24T05:39:54;9.10;99.90
70475;DHT22;57944;48.722;9.316;2022-12-24T05:42:24;9.10;99.90
70475;DHT22;57944;48.722;9.316;2022-12-24T05:44:55;9.10;99.90
70475;DHT22;57944;48.722;9.316;2022-12-24T05:47:25;9.10;99.90
70475;DHT22;57944;48.722;9.316;2022-12-24T05:49:57;9.00;99.90
70475;DHT22;57944;48.722;9.316;2022-12-24T05:52:28;8.90;99.90
70475;DHT22;57944;48.722;9.316;2022-12-24T05:54:58;8.80;99.90
70475;DHT22;57944;48.722;9.316;2022-12-24T05:57:28;8.80;99.90
70475;DHT22;57944;48.722;9.316;2022-12-24T05:59:58;8.70;99.90
70475;DHT22;57944;48.722;9.316;2022-12-24T06:02:38;8.70;99.90
70475;DHT22;57944;48.722;9.316;2022-12-24T06:05:10;8.70;99.90
70475;DHT22;57944;48.722;9.316;2022-12-24T06:07:41;8.60;99.90
70475;DHT22;57944;48.722;9.316;2022-12-24T06:10:11;8.50;99.90
70475;DHT22;57944;48.722;9.316;2022-12-24T06:12:41;8.60;99.90
70475;DHT22;57944;48.722;9.316;2022-12-24T06:15:11;8.60;99.90
70475;DHT22;57944;48.722;9.316;2022-12-24T06:17:49;8.50;99.90
70475;DHT22;57944;48.722;9.316;2022-12-24T06:20:22;8.50;99.90
70475;DHT22;57944;48.722;9.316;2022-12-24T06:22:52;8.40;99.90
70475;DHT22;57944;48.722;9.316;2022-12-24T06:25:22;8.40;99.90
70475;DHT22;57944;48.722;9.316;2022-12-24T06:27:52;8.50;99.90
70475;DHT22;57944;48.722;9.316;2022-12-24T06:30:22;8.70;99.90
70475;DHT22;57944;48.722;9.316;2022-12-24T06:32:52;8.80;99.90
70475;DHT22;57944;48.722;9.316;2022-12-24T06:35:25;8.80;99.90
70475;DHT22;57944;48.722;9.316;2022-12-24T06:37:55;8.80;99.90
70475;DHT22;57944;48.722;9.316;2022-12-24T06:40:26;8.80;99.90
70475;DHT22;57944;48.722;9.316;2022-12-24T06:42:56;8.70;99.90
70475;DHT22;57944;48.722;9.316;2022-12-24T06:45:26;8.80;99.90
70475;DHT22;57944;48.722;9.316;2022-12-24T06:47:56;8.90;99.90
70475;DHT22;57944;48.722;9.316;2022-12-24T06:50:29;9.00;99.90
70475;DHT22;57944;48.722;9.316;2022-12-24T06:52:59;9.00;99.90
70475;DHT22;57944;48.722;9.316;2022-12-24T06:55:29;9.10;99.90
70475;DHT22;57944;48.722;9.316;2022-12-24T06:58:00;9.00;99.90
70475;DHT22;57944;48.722;9.316;2022-12-24T07:00:30;9.00;99.90
70475;DHT22;57944;48.722;9.316;2022-12-24T07:03:00;9.00;99.90
70475;DHT22;57944;48.722;9.316;2022-12-24T07:05:33;8.90;99.90
70475;DHT22;57944;48.722;9.316;2022-12-24T07:08:04;9.00;99.90
70475;DHT22;57944;48.722;9.316;2022-12-24T07:10:34;9.10;99.90
70475;DHT22;57944;48.722;9.316;2022-12-24T07:13:04;9.10;99.90
70475;DHT22;57944;48.722;9.316;2022-12-24T07:15:34;9.10;99.90
70475;DHT22;57944;48.722;9.316;2022-12-24T07:18:04;9.10;99.90
70475;DHT22;57944;48.722;9.316;2022-12-24T07:20:37;9.20;99.90
70475;DHT22;57944;48.722;9.316;2022-12-24T07:23:07;9.20;99.90
70475;DHT22;57944;48.722;9.316;2022-12-24T07:25:41;9.20;99.90
70475;DHT22;57944;48.722;9.316;2022-12-24T07:28:11;9.20;99.90
70475;DHT22;57944;48.722;9.316;2022-12-24T07:30:41;9.30;99.90
70475;DHT22;57944;48.722;9.316;2022-12-24T07:33:11;9.20;99.90
70475;DHT22;57944;48.722;9.316;2022-12-24T07:35:44;9.20;99.90
70475;DHT22;57944;48.722;9.316;2022-12-24T07:38:21;9.10;99.90
70475;DHT22;57944;48.722;9.316;2022-12-24T07:40:51;9.00;99.90
70475;DHT22;57944;48.722;9.316;2022-12-24T07:43:21;9.00;99.90
70475;DHT22;57944;48.722;9.316;2022-12-24T07:45:54;8.90;99.90
70475;DHT22;57944;48.722;9.316;2022-12-24T07:48:26;9.00;99.90
70475;DHT22;57944;48.722;9.316;2022-12-24T07:51:02;8.90;99.90
70475;DHT22;57944;48.722;9.316;2022-12-24T07:53:33;9.10;99.90
70475;DHT22;57944;48.722;9.316;2022-12-24T07:56:03;9.10;99.90
70475;DHT22;57944;48.722;9.316;2022-12-24T07:58:38;9.00;99.90
70475;DHT22;57944;48.722;9.316;2022-12-24T08:01:09;8.90;99.90
70475;DHT22;57944;48.722;9.316;2022-12-24T08:03:39;9.00;99.90
70475;DHT22;57944;48.722;9.316;2022-12-24T08:06:12;9.00;99.90
70475;DHT22;57944;48.722;9.316;2022-12-24T08:08:42;9.10;99.90
70475;DHT22;57944;48.722;9.316;2022-12-24T08:11:13;9.10;99.90
70475;DHT22;57944;48.722;9.316;2022-12-24T08:13:43;9.20;99.90
70475;DHT22;57944;48.722;9.316;2022-12-24T08:16:16;9.20;99.90
70475;DHT22;57944;48.722;9.316;2022-12-24T08:18:47;9.30;99.90
70475;DHT22;57944;48.722;9.316;2022-12-24T08:21:19;9.30;99.90
70475;DHT22;57944;48.722;9.316;2022-12-24T08:23:50;9.20;99.90
70475;DHT22;57944;48.722;9.316;2022-12-24T08:26:20;9.20;99.90
70475;DHT22;57944;48.722;9.316;2022-12-24T08:28:50;9.20;99.90
70475;DHT22;57944;48.722;9.316;2022-12-24T08:31:20;9.30;99.90
70475;DHT22;57944;48.722;9.316;2022-12-24T08:33:51;9.40;99.90
70475;DHT22;57944;48.722;9.316;2022-12-24T08:36:23;9.50;99.90
70475;DHT22;57944;48.722;9.316;2022-12-24T08:38:54;9.70;99.90
70475;DHT22;57944;48.722;9.316;2022-12-24T08:41:24;9.80;99.90
70475;DHT22;57944;48.722;9.316;2022-12-24T08:43:54;9.80;99.90
70475;DHT22;57944;48.722;9.316;2022-12-24T08:46:24;9.90;99.90
70475;DHT22;57944;48.722;9.316;2022-12-24T08:48:54;10.00;99.90
70475;DHT22;57944;48.722;9.316;2022-12-24T08:51:27;10.10;99.90
70475;DHT22;57944;48.722;9.316;2022-12-24T08:53:59;10.10;99.90
70475;DHT22;57944;48.722;9.316;2022-12-24T08:56:29;10.10;99.90
70475;DHT22;57944;48.722;9.316;2022-12-24T08:59:00;10.20;99.90
70475;DHT22;57944;48.722;9.316;2022-12-24T09:01:30;10.30;99.90
70475;DHT22;57944;48.722;9.316;2022-12-24T09:04:04;10.30;99.90
70475;DHT22;57944;48.722;9.316;2022-12-24T09:06:38;10.20;99.90
70475;DHT22;57944;48.722;9.316;2022-12-24T09:09:08;10.30;99.90
70475;DHT22;57944;48.722;9.316;2022-12-24T09:11:38;10.30;99.90
70475;DHT22;57944;48.722;9.316;2022-12-24T09:14:08;10.30;99.90
70475;DHT22;57944;48.722;9.316;2022-12-24T09:16:38;10.30;99.90
70475;DHT22;57944;48.722;9.316;2022-12-24T09:19:08;10.40;99.90
70475;DHT22;57944;48.722;9.316;2022-12-24T09:21:41;10.50;99.90
70475;DHT22;57944;48.722;9.316;2022-12-24T09:24:12;10.80;99.90
70475;DHT22;57944;48.722;9.316;2022-12-24T09:26:42;11.00;99.90
70475;DHT22;57944;48.722;9.316;2022-12-24T09:29:23;11.20;99.90
70475;DHT22;57944;48.722;9.316;2022-12-24T09:31:53;11.20;99.90
70475;DHT22;57944;48.722;9.316;2022-12-24T09:34:25;11.40;99.90
70475;DHT22;57944;48.722;9.316;2022-12-24T09:36:59;11.50;99.90
70475;DHT22;57944;48.722;9.316;2022-12-24T09:39:29;11.60;99.90
70475;DHT22;57944;48.722;9.316;2022-12-24T09:42:09;11.70;99.90
70475;DHT22;57944;48.722;9.316;2022-12-24T09:44:53;11.80;99.90
70475;DHT22;57944;48.722;9.316;2022-12-24T09:47:33;11.50;99.90
70475;DHT22;57944;48.722;9.316;2022-12-24T09:50:29;11.20;99.90
70475;DHT22;57944;48.722;9.316;2022-12-24T09:53:15;11.20;99.90
70475;DHT22;57944;48.722;9.316;2022-12-24T09:55:52;11.10;99.90
70475;DHT22;57944;48.722;9.316;2022-12-24T09:58:30;11.00;99.90
70475;DHT22;57944;48.722;9.316;2022-12-24T10:01:04;10.80;99.90
70475;DHT22;57944;48.722;9.316;2022-12-24T10:03:35;10.70;99.90
70475;DHT22;57944;48.722;9.316;2022-12-24T10:06:09;10.60;99.90
70475;DHT22;57944;48.722;9.316;2022-12-24T10:08:59;10.50;99.90
70475;DHT22;57944;48.722;9.316;2022-12-24T10:11:44;10.50;99.90
70475;DHT22;57944;48.722;9.316;2022-12-24T10:14:33;10.60;99.90
70475;DHT22;57944;48.722;9.316;2022-12-24T10:17:33;10.70;99.90
70475;DHT22;57944;48.722;9.316;2022-12-24T10:20:31;10.70;99.90
70475;DHT22;57944;48.722;9.316;2022-12-24T10:23:12;10.70;99.90
70475;DHT22;57944;48.722;9.316;2022-12-24T10:25:55;10.60;99.90
70475;DHT22;57944;48.722;9.316;2022-12-24T10:28:37;10.60;99.90
70475;DHT22;57944;48.722;9.316;2022-12-24T10:31:15;10.70;99.90
70475;DHT22;57944;48.722;9.316;2022-12-24T10:33:54;10.90;99.90
70475;DHT22;57944;48.722;9.316;2022-12-24T10:36:29;11.10;99.90
70475;DHT22;57944;48.722;9.316;2022-12-24T10:38:59;11.40;99.90
70475;DHT22;57944;48.722;9.316;2022-12-24T10:41:34;11.60;99.90
70475;DHT22;57944;48.722;9.316;2022-12-24T10:44:05;11.90;99.90
70475;DHT22;57944;48.722;9.316;2022-12-24T10:46:38;12.10;99.90
70475;DHT22;57944;48.722;9.316;2022-12-24T10:49:13;12.20;99.90
70475;DHT22;57944;48.722;9.316;2022-12-24T10:51:46;12.50;99.90
70475;DHT22;57944;48.722;9.316;2022-12-24T10:54:22;12.90;99.90
70475;DHT22;57944;48.722;9.316;2022-12-24T10:56:59;13.10;99.90
70475;DHT22;57944;48.722;9.316;2022-12-24T10:59:35;13.30;99.90
70475;DHT22;57944;48.722;9.316;2022-12-24T11:02:26;13.50;99.90
70475;DHT22;57944;48.722;9.316;2022-12-24T11:04:58;13.40;99.90
70475;DHT22;57944;48.722;9.316;2022-12-24T11:07:31;13.70;99.90
70475;DHT22;57944;48.722;9.316;2022-12-24T11:10:05;13.90;99.90
70475;DHT22;57944;48.722;9.316;2022-12-24T11:12:45;14.10;99.90
70475;DHT22;57944;48.722;9.316;2022-12-24T11:15:38;14.00;99.90
70475;DHT22;57944;48.722;9.316;2022-12-24T11:18:13;14.00;99.90
70475;DHT22;57944;48.722;9.316;2022-12-24T11:20:48;14.10;99.90
70475;DHT22;57944;48.722;9.316;2022-12-24T11:23:21;14.20;99.90
70475;DHT22;57944;48.722;9.316;2022-12-24T11:25:52;14.10;99.90
70475;DHT22;57944;48.722;9.316;2022-12-24T11:28:28;13.80;99.90
70475;DHT22;57944;48.722;9.316;2022-12-24T11:31:03;13.40;99.90
70475;DHT22;57944;48.722;9.316;2022-12-24T11:33:45;13.50;99.90
70475;DHT22;57944;48.722;9.316;2022-12-24T11:36:22;13.30;99.90
70475;DHT22;57944;48.722;9.316;2022-12-24T11:38:55;13.10;99.90
70475;DHT22;57944;48.722;9.316;2022-12-24T11:41:38;13.00;99.90
70475;DHT22;57944;48.722;9.316;2022-12-24T11:44:11;13.00;99.90
70475;DHT22;57944;48.722;9.316;2022-12-24T11:46:42;13.00;99.90
70475;DHT22;57944;48.722;9.316;2022-12-24T11:49:23;13.00;99.90
70475;DHT22;57944;48.722;9.316;2022-12-24T11:52:16;13.10;99.90
70475;DHT22;57944;48.722;9.316;2022-12-24T11:55:06;13.30;99.90
70475;DHT22;57944;48.722;9.316;2022-12-24T11:57:53;13.30;99.90
70475;DHT22;57944;48.722;9.316;2022-12-24T12:00:30;13.50;99.90
70475;DHT22;57944;48.722;9.316;2022-12-24T12:03:01;13.70;99.90
70475;DHT22;57944;48.722;9.316;2022-12-24T12:05:33;13.70;99.90
70475;DHT22;57944;48.722;9.316;2022-12-24T12:08:13;13.80;99.90
70475;DHT22;57944;48.722;9.316;2022-12-24T12:10:48;14.00;99.90
70475;DHT22;57944;48.722;9.316;2022-12-24T12:13:25;14.10;99.90
70475;DHT22;57944;48.722;9.316;2022-12-24T12:16:10;14.30;99.90
70475;DHT22;57944;48.722;9.316;2022-12-24T12:18:51;14.70;99.90
70475;DHT22;57944;48.722;9.316;2022-12-24T12:21:31;14.90;99.90
70475;DHT22;57944;48.722;9.316;2022-12-24T12:24:12;15.00;99.90
70475;DHT22;57944;48.722;9.316;2022-12-24T12:27:04;14.90;99.90
70475;DHT22;57944;48.722;9.316;2022-12-24T12:29:45;14.70;99.90
70475;DHT22;57944;48.722;9.316;2022-12-24T12:32:39;14.50;99.90
70475;DHT22;57944;48.722;9.316;2022-12-24T12:35:20;14.60;99.90
70475;DHT22;57944;48.722;9.316;2022-12-24T12:37:56;14.60;99.90
70475;DHT22;57944;48.722;9.316;2022-12-24T12:43:40;14.40;99.90
70475;DHT22;57944;48.722;9.316;2022-12-24T12:46:39;14.40;99.90
70475;DHT22;57944;48.722;9.316;2022-12-24T12:49:35;14.40;99.90
70475;DHT22;57944;48.722;9.316;2022-12-24T12:52:18;14.30;99.90
70475;DHT22;57944;48.722;9.316;2022-12-24T12:55:06;14.30;99.90
70475;DHT22;57944;48.722;9.316;2022-12-24T12:57:54;14.40;99.90
70475;DHT22;57944;48.722;9.316;2022-12-24T13:00:34;14.00;99.90
70475;DHT22;57944;48.722;9.316;2022-12-24T13:03:46;13.90;99.90
70475;DHT22;57944;48.722;9.316;2022-12-24T13:06:49;13.70;99.90
70475;DHT22;57944;48.722;9.316;2022-12-24T13:09:56;13.70;99.90
70475;DHT22;57944;48.722;9.316;2022-12-24T13:12:56;13.60;99.90
70475;DHT22;57944;48.722;9.316;2022-12-24T13:16:01;13.60;99.90
70475;DHT22;57944;48.722;9.316;2022-12-24T13:19:14;13.60;99.90
70475;DHT22;57944;48.722;9.316;2022-12-24T13:21:55;13.30;99.90
70475;DHT22;57944;48.722;9.316;2022-12-24T13:24:27;13.20;99.90
70475;DHT22;57944;48.722;9.316;2022-12-24T13:27:00;13.20;99.90
70475;DHT22;57944;48.722;9.316;2022-12-24T13:29:41;13.10;99.90
70475;DHT22;57944;48.722;9.316;2022-12-24T13:32:38;13.00;99.90
70475;DHT22;57944;48.722;9.316;2022-12-24T13:38:39;12.80;99.90
70475;DHT22;57944;48.722;9.316;2022-12-24T13:44:27;12.60;99.90
70475;DHT22;57944;48.722;9.316;2022-12-24T13:47:21;12.50;99.90
70475;DHT22;57944;48.722;9.316;2022-12-24T13:50:16;12.60;99.90
70475;DHT22;57944;48.722;9.316;2022-12-24T13:52:52;12.20;99.90
70475;DHT22;57944;48.722;9.316;2022-12-24T13:55:25;12.20;99.90
70475;DHT22;57944;48.722;9.316;2022-12-24T13:57:58;12.20;99.90
70475;DHT22;57944;48.722;9.316;2022-12-24T14:00:33;12.30;99.90
70475;DHT22;57944;48.722;9.316;2022-12-24T14:03:25;12.50;99.90
70475;DHT22;57944;48.722;9.316;2022-12-24T14:06:01;12.60;99.90
70475;DHT22;57944;48.722;9.316;2022-12-24T14:08:39;12.70;99.90
70475;DHT22;57944;48.722;9.316;2022-12-24T14:11:17;12.70;99.90
70475;DHT22;57944;48.722;9.316;2022-12-24T14:14:11;12.70;99.90
70475;DHT22;57944;48.722;9.316;2022-12-24T14:16:57;12.90;99.90
70475;DHT22;57944;48.722;9.316;2022-12-24T14:19:39;13.00;99.90
70475;DHT22;57944;48.722;9.316;2022-12-24T14:22:23;13.00;99.90
70475;DHT22;57944;48.722;9.316;2022-12-24T14:24:58;13.00;99.90
70475;DHT22;57944;48.722;9.316;2022-12-24T14:27:41;12.90;99.90
70475;DHT22;57944;48.722;9.316;2022-12-24T14:30:18;12.90;99.90
70475;DHT22;57944;48.722;9.316;2022-12-24T14:32:50;12.90;99.90
70475;DHT22;57944;48.722;9.316;2022-12-24T14:35:24;12.80;99.90
70475;DHT22;57944;48.722;9.316;2022-12-24T14:37:59;12.50;99.90
70475;DHT22;57944;48.722;9.316;2022-12-24T14:40:32;12.20;99.90
70475;DHT22;57944;48.722;9.316;2022-12-24T14:43:17;12.10;99.90
70475;DHT22;57944;48.722;9.316;2022-12-24T14:45:59;11.90;99.90
70475;DHT22;57944;48.722;9.316;2022-12-24T14:48:46;12.00;99.90
70475;DHT22;57944;48.722;9.316;2022-12-24T14:51:25;12.00;99.90
70475;DHT22;57944;48.722;9.316;2022-12-24T14:54:11;12.00;99.90
70475;DHT22;57944;48.722;9.316;2022-12-24T14:57:13;11.80;99.90
70475;DHT22;57944;48.722;9.316;2022-12-24T14:59:52;11.60;99.90
70475;DHT22;57944;48.722;9.316;2022-12-24T15:02:29;11.50;99.90
70475;DHT22;57944;48.722;9.316;2022-12-24T15:05:13;11.40;99.90
70475;DHT22;57944;48.722;9.316;2022-12-24T15:07:52;11.40;99.90
70475;DHT22;57944;48.722;9.316;2022-12-24T15:10:29;11.20;99.90
70475;DHT22;57944;48.722;9.316;2022-12-24T15:13:03;11.10;99.90
70475;DHT22;57944;48.722;9.316;2022-12-24T15:15:41;11.00;99.90
70475;DHT22;57944;48.722;9.316;2022-12-24T15:18:23;10.90;99.90
70475;DHT22;57944;48.722;9.316;2022-12-24T15:20:57;10.80;99.90
70475;DHT22;57944;48.722;9.316;2022-12-24T15:23:32;10.80;99.90
70475;DHT22;57944;48.722;9.316;2022-12-24T15:26:13;10.70;99.90
70475;DHT22;57944;48.722;9.316;2022-12-24T15:28:50;10.60;99.90
70475;DHT22;57944;48.722;9.316;2022-12-24T15:31:32;10.50;99.90
70475;DHT22;57944;48.722;9.316;2022-12-24T15:34:02;10.40;99.90
70475;DHT22;57944;48.722;9.316;2022-12-24T15:36:33;10.40;99.90
70475;DHT22;57944;48.722;9.316;2022-12-24T15:39:06;10.40;99.90
70475;DHT22;57944;48.722;9.316;2022-12-24T15:41:44;10.40;99.90
70475;DHT22;57944;48.722;9.316;2022-12-24T15:44:28;10.40;99.90
70475;DHT22;57944;48.722;9.316;2022-12-24T15:47:07;10.40;99.90
70475;DHT22;57944;48.722;9.316;2022-12-24T15:49:47;10.40;99.90
70475;DHT22;57944;48.722;9.316;2022-12-24T15:52:22;10.40;99.90
70475;DHT22;57944;48.722;9.316;2022-12-24T15:54:53;10.30;99.90
70475;DHT22;57944;48.722;9.316;2022-12-24T15:57:28;10.30;99.90
70475;DHT22;57944;48.722;9.316;2022-12-24T16:00:01;10.30;99.90
70475;DHT22;57944;48.722;9.316;2022-12-24T16:02:38;10.30;99.90
70475;DHT22;57944;48.722;9.316;2022-12-24T16:05:28;10.20;99.90
70475;DHT22;57944;48.722;9.316;2022-12-24T16:08:20;10.20;99.90
70475;DHT22;57944;48.722;9.316;2022-12-24T16:11:05;10.30;99.90
70475;DHT22;57944;48.722;9.316;2022-12-24T16:13:40;10.30;99.90
70475;DHT22;57944;48.722;9.316;2022-12-24T16:16:13;10.30;99.90
70475;DHT22;57944;48.722;9.316;2022-12-24T16:18:51;10.40;99.90
70475;DHT22;57944;48.722;9.316;2022-12-24T16:21:26;10.40;99.90
70475;DHT22;57944;48.722;9.316;2022-12-24T16:24:04;10.50;99.90
70475;DHT22;57944;48.722;9.316;2022-12-24T16:26:41;10.40;99.90
70475;DHT22;57944;48.722;9.316;2022-12-24T16:29:11;10.40;99.90
70475;DHT22;57944;48.722;9.316;2022-12-24T16:31:44;10.40;99.90
70475;DHT22;57944;48.722;9.316;2022-12-24T16:34:23;10.40;99.90
70475;DHT22;57944;48.722;9.316;2022-12-24T16:36:55;10.50;99.90
70475;DHT22;57944;48.722;9.316;2022-12-24T16:39:29;10.50;99.90
70475;DHT22;57944;48.722;9.316;2022-12-24T16:42:03;10.60;99.90
70475;DHT22;57944;48.722;9.316;2022-12-24T16:44:46;10.60;99.90